sensor_id;sensor_type;location;lat;lon;timestamp;temperature;humidity
2625;DHT22;1322;53.256;10.386;2024-01-15T00:00:01;3.30;99.90
2625;DHT22;1322;53.256;10.386;2024-01-15T00:02:26;3.40;99.90
2625;DHT22;1322;53.256;10.386;2024-01-15T00:04:52;3.40;99.90
2625;DHT22;1322;53.256;10.386;2024-01-15T00:07:17;3.40;99.90
2625;DHT22;1322;53.256;10.386;2024-01-15T00:09:43;3.40;99.90
2625;DHT22;1322;53.256;10.386;2024-01-15T00:12:09;3.40;99.90
2625;DHT22;1322;53.256;10.386;2024-01-15T00:14:34;3.40;99.90
2625;DHT22;1322;53.256;10.386;2024-01-15T00:17:00;3.30;99.90
2625;DHT22;1322;53.256;10.386;2024-01-15T00:19:25;3.20;99.90
2625;DHT22;1322;53.256;10.386;2024-01-15T00:21:52;3.10;99.90
2625;DHT22;1322;53.256;10.386;2024-01-15T00:24:18;3.00;99.90
2625;DHT22;1322;53.256;10.386;2024-01-15T00:26:43;3.10;99.90
2625;DHT22;1322;53.256;10.386;2024-01-15T00:29:09;3.10;99.90
2625;DHT22;1322;53.256;10.386;2024-01-15T00:31:35;3.10;99.90
2625;DHT22;1322;53.256;10.386;2024-01-15T00:34:01;3.10;99.90
2625;DHT22;1322;53.256;10.386;2024-01-15T00:36:27;3.20;99.90
2625;DHT22;1322;53.256;10.386;2024-01-15T00:38:53;3.20;99.90
2625;DHT22;1322;53.256;10.386;2024-01-15T00:41:19;3.20;99.90
2625;DHT22;1322;53.256;10.386;2024-01-15T00:43:45;3.30;99.90
2625;DHT22;1322;53.256;10.386;2024-01-15T00:46:11;3.30;99.90
2625;DHT22;1322;53.256;10.386;2024-01-15T00:48:37;3.40;99.90
2625;DHT22;1322;53.256;10.386;2024-01-15T00:51:04;3.40;99.90
2625;DHT22;1322;53.256;10.386;2024-01-15T00:53:30;3.40;99.90
2625;DHT22;1322;53.256;10.386;2024-01-15T00:55:55;3.50;99.90
2625;DHT22;1322;53.256;10.386;2024-01-15T00:58:21;3.50;99.90
2625;DHT22;1322;53.256;10.386;2024-01-15T01:00:46;3.40;99.90
2625;DHT22;1322;53.256;10.386;2024-01-15T01:03:12;3.40;99.90
2625;DHT22;1322;53.256;10.386;2024-01-15T01:05:38;3.30;99.90
2625;DHT22;1322;53.256;10.386;2024-01-15T01:08:04;3.40;99.90
2625;DHT22;1322;53.256;10.386;2024-01-15T01:10:29;3.50;99.90
2625;DHT22;1322;53.256;10.386;2024-01-15T01:12:55;3.40;99.90
2625;DHT22;1322;53.256;10.386;2024-01-15T01:15:21;3.40;99.90
2625;DHT22;1322;53.256;10.386;2024-01-15T01:17:47;3.30;99.90
2625;DHT22;1322;53.256;10.386;2024-01-15T01:20:12;3.30;99.90
2625;DHT22;1322;53.256;10.386;2024-01-15T01:22:39;3.30;99.90
2625;DHT22;1322;53.256;10.386;2024-01-15T01:25:05;3.30;99.90
2625;DHT22;1322;53.256;10.386;2024-01-15T01:27:30;3.30;99.90
2625;DHT22;1322;53.256;10.386;2024-01-15T01:29:56;3.30;99.90
2625;DHT22;1322;53.256;10.386;2024-01-15T01:32:22;3.40;99.90
2625;DHT22;1322;53.256;10.386;2024-01-15T01:34:47;3.30;99.90
2625;DHT22;1322;53.256;10.386;2024-01-15T01:37:14;3.30;99.90
2625;DHT22;1322;53.256;10.386;2024-01-15T01:39:40;3.30;99.90
2625;DHT22;1322;53.256;10.386;2024-01-15T01:42:06;3.30;99.90
2625;DHT22;1322;53.256;10.386;2024-01-15T01:44:32;3.30;99.90
2625;DHT22;1322;53.256;10.386;2024-01-15T01:47:01;3.30;99.90
2625;DHT22;1322;53.256;10.386;2024-01-15T01:49:27;3.20;99.90
2625;DHT22;1322;53.256;10.386;2024-01-15T01:51:56;3.20;99.90
2625;DHT22;1322;53.256;10.386;2024-01-15T01:54:22;3.20;99.90
2625;DHT22;1322;53.256;10.386;2024-01-15T01:56:49;3.10;99.90
2625;DHT22;1322;53.256;10.386;2024-01-15T01:59:16;3.20;99.90
2625;DHT22;1322;53.256;10.386;2024-01-15T02:01:42;3.20;99.90
2625;DHT22;1322;53.256;10.386;2024-01-15T02:04:09;3.30;99.90
2625;DHT22;1322;53.256;10.386;2024-01-15T02:06:34;3.40;99.90
2625;DHT22;1322;53.256;10.386;2024-01-15T02:09:00;3.40;99.90
2625;DHT22;1322;53.256;10.386;2024-01-15T02:11:26;3.40;99.90
2625;DHT22;1322;53.256;10.386;2024-01-15T02:13:52;3.40;99.90
2625;DHT22;1322;53.256;10.386;2024-01-15T02:16:17;3.40;99.90
2625;DHT22;1322;53.256;10.386;2024-01-15T02:18:44;3.30;99.90
2625;DHT22;1322;53.256;10.386;2024-01-15T02:21:10;3.30;99.90
2625;DHT22;1322;53.256;10.386;2024-01-15T02:23:36;3.30;99.90
2625;DHT22;1322;53.256;10.386;2024-01-15T02:26:03;3.30;99.90
2625;DHT22;1322;53.256;10.386;2024-01-15T02:28:29;3.20;99.90
2625;DHT22;1322;53.256;10.386;2024-01-15T02:30:54;3.10;99.90
2625;DHT22;1322;53.256;10.386;2024-01-15T02:33:20;3.10;99.90
2625;DHT22;1322;53.256;10.386;2024-01-15T02:35:46;3.10;99.90
2625;DHT22;1322;53.256;10.386;2024-01-15T02:38:12;3.00;99.90
2625;DHT22;1322;53.256;10.386;2024-01-15T02:40:38;3.00;99.90
2625;DHT22;1322;53.256;10.386;2024-01-15T02:43:04;3.00;99.90
2625;DHT22;1322;53.256;10.386;2024-01-15T02:45:30;3.00;99.90
2625;DHT22;1322;53.256;10.386;2024-01-15T02:47:55;3.00;99.90
2625;DHT22;1322;53.256;10.386;2024-01-15T02:50:21;3.00;99.90
2625;DHT22;1322;53.256;10.386;2024-01-15T02:52:47;3.00;99.90
2625;DHT22;1322;53.256;10.386;2024-01-15T02:55:12;3.10;99.90
2625;DHT22;1322;53.256;10.386;2024-01-15T02:57:38;3.10;99.90
2625;DHT22;1322;53.256;10.386;2024-01-15T03:00:04;2.90;99.90
2625;DHT22;1322;53.256;10.386;2024-01-15T03:02:30;3.10;99.90
2625;DHT22;1322;53.256;10.386;2024-01-15T03:04:59;3.10;99.90
2625;DHT22;1322;53.256;10.386;2024-01-15T03:07:25;3.00;99.90
2625;DHT22;1322;53.256;10.386;2024-01-15T03:09:50;3.10;99.90
2625;DHT22;1322;53.256;10.386;2024-01-15T03:12:16;3.00;99.90
2625;DHT22;1322;53.256;10.386;2024-01-15T03:14:42;3.00;99.90
2625;DHT22;1322;53.256;10.386;2024-01-15T03:17:07;3.10;99.90
2625;DHT22;1322;53.256;10.386;2024-01-15T03:19:35;3.10;99.90
2625;DHT22;1322;53.256;10.386;2024-01-15T03:22:01;3.20;99.90
2625;DHT22;1322;53.256;10.386;2024-01-15T03:24:28;3.20;99.90
2625;DHT22;1322;53.256;10.386;2024-01-15T03:26:53;3.30;99.90
2625;DHT22;1322;53.256;10.386;2024-01-15T03:29:19;3.40;99.90
2625;DHT22;1322;53.256;10.386;2024-01-15T03:31:45;3.40;99.90
2625;DHT22;1322;53.256;10.386;2024-01-15T03:34:10;3.40;99.90
2625;DHT22;1322;53.256;10.386;2024-01-15T03:36:36;3.40;99.90
2625;DHT22;1322;53.256;10.386;2024-01-15T03:39:02;3.30;99.90
2625;DHT22;1322;53.256;10.386;2024-01-15T03:41:27;3.20;99.90
2625;DHT22;1322;53.256;10.386;2024-01-15T03:43:53;3.30;99.90
2625;DHT22;1322;53.256;10.386;2024-01-15T03:46:19;3.40;99.90
2625;DHT22;1322;53.256;10.386;2024-01-15T03:48:44;3.30;99.90
2625;DHT22;1322;53.256;10.386;2024-01-15T03:51:10;3.30;99.90
2625;DHT22;1322;53.256;10.386;2024-01-15T03:53:37;3.30;99.90
2625;DHT22;1322;53.256;10.386;2024-01-15T03:56:03;3.30;99.90
2625;DHT22;1322;53.256;10.386;2024-01-15T03:58:29;3.20;99.90
2625;DHT22;1322;53.256;10.386;2024-01-15T04:00:54;3.20;99.90
2625;DHT22;1322;53.256;10.386;2024-01-15T04:03:20;3.20;99.90
2625;DHT22;1322;53.256;10.386;2024-01-15T04:05:45;3.30;99.90
2625;DHT22;1322;53.256;10.386;2024-01-15T04:08:11;3.40;99.90
2625;DHT22;1322;53.256;10.386;2024-01-15T04:10:37;3.40;99.90
2625;DHT22;1322;53.256;10.386;2024-01-15T04:13:02;3.40;99.90
2625;DHT22;1322;53.256;10.386;2024-01-15T04:15:29;3.30;99.90
2625;DHT22;1322;53.256;10.386;2024-01-15T04:17:54;3.30;99.90
2625;DHT22;1322;53.256;10.386;2024-01-15T04:20:20;3.20;99.90
2625;DHT22;1322;53.256;10.386;2024-01-15T04:22:45;3.20;99.90
2625;DHT22;1322;53.256;10.386;2024-01-15T04:25:11;3.20;99.90
2625;DHT22;1322;53.256;10.386;2024-01-15T04:27:37;3.30;99.90
2625;DHT22;1322;53.256;10.386;2024-01-15T04:30:03;3.40;99.90
2625;DHT22;1322;53.256;10.386;2024-01-15T04:32:28;3.30;99.90
2625;DHT22;1322;53.256;10.386;2024-01-15T04:34:55;3.30;99.90
2625;DHT22;1322;53.256;10.386;2024-01-15T04:37:20;3.30;99.90
2625;DHT22;1322;53.256;10.386;2024-01-15T04:39:46;3.30;99.90
2625;DHT22;1322;53.256;10.386;2024-01-15T04:42:11;3.30;99.90
2625;DHT22;1322;53.256;10.386;2024-01-15T04:44:37;3.20;99.90
2625;DHT22;1322;53.256;10.386;2024-01-15T04:47:03;3.20;99.90
2625;DHT22;1322;53.256;10.386;2024-01-15T04:49:29;3.10;99.90
2625;DHT22;1322;53.256;10.386;2024-01-15T04:51:55;3.10;99.90
2625;DHT22;1322;53.256;10.386;2024-01-15T04:54:21;3.00;99.90
2625;DHT22;1322;53.256;10.386;2024-01-15T04:56:46;3.00;99.90
2625;DHT22;1322;53.256;10.386;2024-01-15T04:59:13;3.00;99.90
2625;DHT22;1322;53.256;10.386;2024-01-15T05:01:39;3.00;99.90
2625;DHT22;1322;53.256;10.386;2024-01-15T05:04:05;2.90;99.90
2625;DHT22;1322;53.256;10.386;2024-01-15T05:06:31;2.90;99.90
2625;DHT22;1322;53.256;10.386;2024-01-15T05:08:57;3.00;99.90
2625;DHT22;1322;53.256;10.386;2024-01-15T05:11:22;3.10;99.90
2625;DHT22;1322;53.256;10.386;2024-01-15T05:13:48;3.10;99.90
2625;DHT22;1322;53.256;10.386;2024-01-15T05:16:17;3.10;99.90
2625;DHT22;1322;53.256;10.386;2024-01-15T05:18:44;3.10;99.90
2625;DHT22;1322;53.256;10.386;2024-01-15T05:21:10;3.10;99.90
2625;DHT22;1322;53.256;10.386;2024-01-15T05:23:35;3.00;99.90
2625;DHT22;1322;53.256;10.386;2024-01-15T05:26:01;2.90;99.90
2625;DHT22;1322;53.256;10.386;2024-01-15T05:28:27;2.90;99.90
2625;DHT22;1322;53.256;10.386;2024-01-15T05:30:52;2.90;99.90
2625;DHT22;1322;53.256;10.386;2024-01-15T05:33:20;2.90;99.90
2625;DHT22;1322;53.256;10.386;2024-01-15T05:35:45;2.90;99.90
2625;DHT22;1322;53.256;10.386;2024-01-15T05:38:11;3.00;99.90
2625;DHT22;1322;53.256;10.386;2024-01-15T05:40:38;3.00;99.90
2625;DHT22;1322;53.256;10.386;2024-01-15T05:43:03;3.00;99.90
2625;DHT22;1322;53.256;10.386;2024-01-15T05:45:30;2.90;99.90
2625;DHT22;1322;53.256;10.386;2024-01-15T05:47:56;2.90;99.90
2625;DHT22;1322;53.256;10.386;2024-01-15T05:50:22;3.00;99.90
2625;DHT22;1322;53.256;10.386;2024-01-15T05:52:48;3.00;99.90
2625;DHT22;1322;53.256;10.386;2024-01-15T05:55:13;2.90;99.90
2625;DHT22;1322;53.256;10.386;2024-01-15T05:57:39;2.90;99.90
2625;DHT22;1322;53.256;10.386;2024-01-15T06:00:05;3.00;99.90
2625;DHT22;1322;53.256;10.386;2024-01-15T06:02:31;3.10;99.90
2625;DHT22;1322;53.256;10.386;2024-01-15T06:04:57;3.20;99.90
2625;DHT22;1322;53.256;10.386;2024-01-15T06:07:23;3.20;99.90
2625;DHT22;1322;53.256;10.386;2024-01-15T06:09:49;3.10;99.90
2625;DHT22;1322;53.256;10.386;2024-01-15T06:12:14;3.10;99.90
2625;DHT22;1322;53.256;10.386;2024-01-15T06:14:40;3.10;99.90
2625;DHT22;1322;53.256;10.386;2024-01-15T06:17:07;3.10;99.90
2625;DHT22;1322;53.256;10.386;2024-01-15T06:19:32;3.20;99.90
2625;DHT22;1322;53.256;10.386;2024-01-15T06:21:58;3.30;99.90
2625;DHT22;1322;53.256;10.386;2024-01-15T06:24:24;3.30;99.90
2625;DHT22;1322;53.256;10.386;2024-01-15T06:26:49;3.30;99.90
2625;DHT22;1322;53.256;10.386;2024-01-15T06:29:15;3.30;99.90
2625;DHT22;1322;53.256;10.386;2024-01-15T06:31:40;3.30;99.90
2625;DHT22;1322;53.256;10.386;2024-01-15T06:34:06;3.20;99.90
2625;DHT22;1322;53.256;10.386;2024-01-15T06:36:31;3.30;99.90
2625;DHT22;1322;53.256;10.386;2024-01-15T06:38:57;3.30;99.90
2625;DHT22;1322;53.256;10.386;2024-01-15T06:41:23;3.30;99.90
2625;DHT22;1322;53.256;10.386;2024-01-15T06:43:48;3.20;99.90
2625;DHT22;1322;53.256;10.386;2024-01-15T06:46:23;3.10;99.90
2625;DHT22;1322;53.256;10.386;2024-01-15T06:48:49;3.10;99.90
2625;DHT22;1322;53.256;10.386;2024-01-15T06:51:16;3.20;99.90
2625;DHT22;1322;53.256;10.386;2024-01-15T06:53:41;3.20;99.90
2625;DHT22;1322;53.256;10.386;2024-01-15T06:56:08;3.20;99.90
2625;DHT22;1322;53.256;10.386;2024-01-15T06:58:33;3.20;99.90
2625;DHT22;1322;53.256;10.386;2024-01-15T07:00:59;3.20;99.90
2625;DHT22;1322;53.256;10.386;2024-01-15T07:03:25;3.20;99.90
2625;DHT22;1322;53.256;10.386;2024-01-15T07:05:51;3.20;99.90
2625;DHT22;1322;53.256;10.386;2024-01-15T07:08:17;3.20;99.90
2625;DHT22;1322;53.256;10.386;2024-01-15T07:10:42;3.10;99.90
2625;DHT22;1322;53.256;10.386;2024-01-15T07:13:08;3.10;99.90
2625;DHT22;1322;53.256;10.386;2024-01-15T07:15:34;3.10;99.90
2625;DHT22;1322;53.256;10.386;2024-01-15T07:17:59;3.20;99.90
2625;DHT22;1322;53.256;10.386;2024-01-15T07:20:25;3.10;99.90
2625;DHT22;1322;53.256;10.386;2024-01-15T07:22:51;3.10;99.90
2625;DHT22;1322;53.256;10.386;2024-01-15T07:25:16;3.10;99.90
2625;DHT22;1322;53.256;10.386;2024-01-15T07:27:42;3.10;99.90
2625;DHT22;1322;53.256;10.386;2024-01-15T07:30:12;3.10;99.90
2625;DHT22;1322;53.256;10.386;2024-01-15T07:32:38;3.10;99.90
2625;DHT22;1322;53.256;10.386;2024-01-15T07:35:04;3.10;99.90
2625;DHT22;1322;53.256;10.386;2024-01-15T07:37:30;3.20;99.90
2625;DHT22;1322;53.256;10.386;2024-01-15T07:39:56;3.20;99.90
2625;DHT22;1322;53.256;10.386;2024-01-15T07:42:21;3.20;99.90
2625;DHT22;1322;53.256;10.386;2024-01-15T07:44:47;3.20;99.90
2625;DHT22;1322;53.256;10.386;2024-01-15T07:47:13;3.20;99.90
2625;DHT22;1322;53.256;10.386;2024-01-15T07:49:38;3.20;99.90
2625;DHT22;1322;53.256;10.386;2024-01-15T07:52:04;3.30;99.90
2625;DHT22;1322;53.256;10.386;2024-01-15T07:54:33;3.40;99.90
2625;DHT22;1322;53.256;10.386;2024-01-15T07:57:02;3.40;99.90
2625;DHT22;1322;53.256;10.386;2024-01-15T07:59:28;3.30;99.90
2625;DHT22;1322;53.256;10.386;2024-01-15T08:01:54;3.40;99.90
2625;DHT22;1322;53.256;10.386;2024-01-15T08:04:20;3.40;99.90
2625;DHT22;1322;53.256;10.386;2024-01-15T08:06:47;3.30;99.90
2625;DHT22;1322;53.256;10.386;2024-01-15T08:09:13;3.40;99.90
2625;DHT22;1322;53.256;10.386;2024-01-15T08:11:40;3.30;99.90
2625;DHT22;1322;53.256;10.386;2024-01-15T08:14:09;3.30;99.90
2625;DHT22;1322;53.256;10.386;2024-01-15T08:16:36;3.30;99.90
2625;DHT22;1322;53.256;10.386;2024-01-15T08:19:02;3.40;99.90
2625;DHT22;1322;53.256;10.386;2024-01-15T08:21:28;3.40;99.90
2625;DHT22;1322;53.256;10.386;2024-01-15T08:23:58;3.30;99.90
2625;DHT22;1322;53.256;10.386;2024-01-15T08:26:24;3.30;99.90
2625;DHT22;1322;53.256;10.386;2024-01-15T08:28:49;3.30;99.90
2625;DHT22;1322;53.256;10.386;2024-01-15T08:31:15;3.30;99.90
2625;DHT22;1322;53.256;10.386;2024-01-15T08:33:41;3.30;99.90
2625;DHT22;1322;53.256;10.386;2024-01-15T08:36:06;3.40;99.90
2625;DHT22;1322;53.256;10.386;2024-01-15T08:38:32;3.40;99.90
2625;DHT22;1322;53.256;10.386;2024-01-15T08:40:57;3.40;99.90
2625;DHT22;1322;53.256;10.386;2024-01-15T08:43:26;3.50;99.90
2625;DHT22;1322;53.256;10.386;2024-01-15T08:45:52;3.50;99.90
2625;DHT22;1322;53.256;10.386;2024-01-15T08:48:17;3.50;99.90
2625;DHT22;1322;53.256;10.386;2024-01-15T08:50:43;3.50;99.90
2625;DHT22;1322;53.256;10.386;2024-01-15T08:53:11;3.50;99.90
2625;DHT22;1322;53.256;10.386;2024-01-15T08:55:37;3.60;99.90
2625;DHT22;1322;53.256;10.386;2024-01-15T08:58:03;3.70;99.90
2625;DHT22;1322;53.256;10.386;2024-01-15T09:00:29;3.80;99.90
2625;DHT22;1322;53.256;10.386;2024-01-15T09:02:55;3.80;99.90
2625;DHT22;1322;53.256;10.386;2024-01-15T09:05:22;3.90;99.90
2625;DHT22;1322;53.256;10.386;2024-01-15T09:07:47;3.80;99.90
2625;DHT22;1322;53.256;10.386;2024-01-15T09:10:13;3.80;99.90
2625;DHT22;1322;53.256;10.386;2024-01-15T09:12:39;3.80;99.90
2625;DHT22;1322;53.256;10.386;2024-01-15T09:15:05;3.70;99.90
2625;DHT22;1322;53.256;10.386;2024-01-15T09:17:31;3.70;99.90
2625;DHT22;1322;53.256;10.386;2024-01-15T09:19:57;3.80;99.90
2625;DHT22;1322;53.256;10.386;2024-01-15T09:22:23;3.80;99.90
2625;DHT22;1322;53.256;10.386;2024-01-15T09:24:48;3.70;99.90
2625;DHT22;1322;53.256;10.386;2024-01-15T09:27:14;3.80;99.90
2625;DHT22;1322;53.256;10.386;2024-01-15T09:29:41;3.80;99.90
2625;DHT22;1322;53.256;10.386;2024-01-15T09:32:07;3.80;99.90
2625;DHT22;1322;53.256;10.386;2024-01-15T09:34:36;3.90;99.90
2625;DHT22;1322;53.256;10.386;2024-01-15T09:37:01;3.90;99.90
2625;DHT22;1322;53.256;10.386;2024-01-15T09:39:28;3.80;99.90
2625;DHT22;1322;53.256;10.386;2024-01-15T09:41:54;3.80;99.90
2625;DHT22;1322;53.256;10.386;2024-01-15T09:44:21;3.90;99.90
2625;DHT22;1322;53.256;10.386;2024-01-15T09:46:47;3.90;99.90
2625;DHT22;1322;53.256;10.386;2024-01-15T09:49:16;4.00;99.90
2625;DHT22;1322;53.256;10.386;2024-01-15T09:51:42;4.00;99.90
2625;DHT22;1322;53.256;10.386;2024-01-15T09:54:08;4.10;99.90
2625;DHT22;1322;53.256;10.386;2024-01-15T09:56:34;4.10;99.90
2625;DHT22;1322;53.256;10.386;2024-01-15T09:59:00;4.10;99.90
2625;DHT22;1322;53.256;10.386;2024-01-15T10:01:26;4.30;99.90
2625;DHT22;1322;53.256;10.386;2024-01-15T10:03:52;4.50;99.90
2625;DHT22;1322;53.256;10.386;2024-01-15T10:06:18;4.60;99.90
2625;DHT22;1322;53.256;10.386;2024-01-15T10:08:51;4.90;99.90
2625;DHT22;1322;53.256;10.386;2024-01-15T10:11:18;5.00;99.90
2625;DHT22;1322;53.256;10.386;2024-01-15T10:13:43;5.00;99.90
2625;DHT22;1322;53.256;10.386;2024-01-15T10:16:09;5.00;99.90
2625;DHT22;1322;53.256;10.386;2024-01-15T10:18:36;5.00;99.90
2625;DHT22;1322;53.256;10.386;2024-01-15T10:21:03;4.80;99.90
2625;DHT22;1322;53.256;10.386;2024-01-15T10:23:31;4.70;99.90
2625;DHT22;1322;53.256;10.386;2024-01-15T10:25:58;4.60;99.90
2625;DHT22;1322;53.256;10.386;2024-01-15T10:28:26;4.40;99.90
2625;DHT22;1322;53.256;10.386;2024-01-15T10:30:55;4.30;99.90
2625;DHT22;1322;53.256;10.386;2024-01-15T10:33:25;4.20;99.90
2625;DHT22;1322;53.256;10.386;2024-01-15T10:36:00;4.20;99.90
2625;DHT22;1322;53.256;10.386;2024-01-15T10:38:25;4.10;99.90
2625;DHT22;1322;53.256;10.386;2024-01-15T10:40:52;4.20;99.90
2625;DHT22;1322;53.256;10.386;2024-01-15T10:43:18;4.20;99.90
2625;DHT22;1322;53.256;10.386;2024-01-15T10:45:48;4.30;99.90
2625;DHT22;1322;53.256;10.386;2024-01-15T10:48:15;4.30;99.90
2625;DHT22;1322;53.256;10.386;2024-01-15T10:50:41;4.30;99.90
2625;DHT22;1322;53.256;10.386;2024-01-15T10:53:08;4.30;99.90
2625;DHT22;1322;53.256;10.386;2024-01-15T10:55:35;4.40;99.90
2625;DHT22;1322;53.256;10.386;2024-01-15T10:58:03;4.40;99.90
2625;DHT22;1322;53.256;10.386;2024-01-15T11:00:29;4.50;99.90
2625;DHT22;1322;53.256;10.386;2024-01-15T11:02:55;4.40;99.90
2625;DHT22;1322;53.256;10.386;2024-01-15T11:05:22;4.50;99.90
2625;DHT22;1322;53.256;10.386;2024-01-15T11:07:48;4.50;99.90
2625;DHT22;1322;53.256;10.386;2024-01-15T11:10:44;4.40;99.90
2625;DHT22;1322;53.256;10.386;2024-01-15T11:18:27;4.00;99.90
2625;DHT22;1322;53.256;10.386;2024-01-15T11:21:20;4.10;99.90
2625;DHT22;1322;53.256;10.386;2024-01-15T11:24:03;4.20;99.90
2625;DHT22;1322;53.256;10.386;2024-01-15T11:26:43;4.10;99.90
2625;DHT22;1322;53.256;10.386;2024-01-15T11:31:57;3.90;99.90
2625;DHT22;1322;53.256;10.386;2024-01-15T11:34:56;3.80;99.90
2625;DHT22;1322;53.256;10.386;2024-01-15T11:42:58;3.70;99.90
2625;DHT22;1322;53.256;10.386;2024-01-15T11:45:24;3.60;99.90
2625;DHT22;1322;53.256;10.386;2024-01-15T11:50:30;3.60;99.90
2625;DHT22;1322;53.256;10.386;2024-01-15T11:53:03;3.70;99.90
2625;DHT22;1322;53.256;10.386;2024-01-15T11:55:35;3.70;99.90
2625;DHT22;1322;53.256;10.386;2024-01-15T11:58:02;3.80;99.90
2625;DHT22;1322;53.256;10.386;2024-01-15T12:00:30;3.80;99.90
2625;DHT22;1322;53.256;10.386;2024-01-15T12:02:58;3.90;99.90
2625;DHT22;1322;53.256;10.386;2024-01-15T12:05:24;3.80;99.90
2625;DHT22;1322;53.256;10.386;2024-01-15T12:07:50;3.70;99.90
2625;DHT22;1322;53.256;10.386;2024-01-15T12:10:18;3.70;99.90
2625;DHT22;1322;53.256;10.386;2024-01-15T12:15:10;3.70;99.90
2625;DHT22;1322;53.256;10.386;2024-01-15T12:17:36;3.80;99.90
2625;DHT22;1322;53.256;10.386;2024-01-15T12:20:05;3.80;99.90
2625;DHT22;1322;53.256;10.386;2024-01-15T12:22:31;3.80;99.90
2625;DHT22;1322;53.256;10.386;2024-01-15T12:24:57;3.80;99.90
2625;DHT22;1322;53.256;10.386;2024-01-15T12:27:23;3.80;99.90
2625;DHT22;1322;53.256;10.386;2024-01-15T12:29:49;3.90;99.90
2625;DHT22;1322;53.256;10.386;2024-01-15T12:32:15;3.90;99.90
2625;DHT22;1322;53.256;10.386;2024-01-15T12:34:40;4.10;99.90
2625;DHT22;1322;53.256;10.386;2024-01-15T12:37:07;4.10;99.90
2625;DHT22;1322;53.256;10.386;2024-01-15T12:39:36;4.10;99.90
2625;DHT22;1322;53.256;10.386;2024-01-15T12:42:02;4.10;99.90
2625;DHT22;1322;53.256;10.386;2024-01-15T12:44:29;4.00;99.90
2625;DHT22;1322;53.256;10.386;2024-01-15T12:46:54;4.00;99.90
2625;DHT22;1322;53.256;10.386;2024-01-15T12:49:21;4.20;99.90
2625;DHT22;1322;53.256;10.386;2024-01-15T12:51:56;4.30;99.90
2625;DHT22;1322;53.256;10.386;2024-01-15T12:54:23;4.40;99.90
2625;DHT22;1322;53.256;10.386;2024-01-15T12:56:50;4.30;99.90
2625;DHT22;1322;53.256;10.386;2024-01-15T12:59:15;4.20;99.90
2625;DHT22;1322;53.256;10.386;2024-01-15T13:01:41;4.20;99.90
2625;DHT22;1322;53.256;10.386;2024-01-15T13:04:07;4.10;99.90
2625;DHT22;1322;53.256;10.386;2024-01-15T13:06:34;4.10;99.90
2625;DHT22;1322;53.256;10.386;2024-01-15T13:09:00;4.00;99.90
2625;DHT22;1322;53.256;10.386;2024-01-15T13:11:27;4.10;99.90
2625;DHT22;1322;53.256;10.386;2024-01-15T13:13:52;4.00;99.90
2625;DHT22;1322;53.256;10.386;2024-01-15T13:16:18;4.00;99.90
2625;DHT22;1322;53.256;10.386;2024-01-15T13:18:46;3.90;99.90
2625;DHT22;1322;53.256;10.386;2024-01-15T13:21:11;4.00;99.90
2625;DHT22;1322;53.256;10.386;2024-01-15T13:23:38;4.10;99.90
2625;DHT22;1322;53.256;10.386;2024-01-15T13:26:04;4.20;99.90
2625;DHT22;1322;53.256;10.386;2024-01-15T13:28:30;4.30;99.90
2625;DHT22;1322;53.256;10.386;2024-01-15T13:30:56;4.20;99.90
2625;DHT22;1322;53.256;10.386;2024-01-15T13:33:21;4.00;99.90
2625;DHT22;1322;53.256;10.386;2024-01-15T13:35:47;4.20;99.90
2625;DHT22;1322;53.256;10.386;2024-01-15T13:38:15;4.10;99.90
2625;DHT22;1322;53.256;10.386;2024-01-15T13:40:41;4.20;99.90
2625;DHT22;1322;53.256;10.386;2024-01-15T13:43:07;4.10;99.90
2625;DHT22;1322;53.256;10.386;2024-01-15T13:45:34;4.10;99.90
2625;DHT22;1322;53.256;10.386;2024-01-15T13:48:01;3.90;99.90
2625;DHT22;1322;53.256;10.386;2024-01-15T13:50:26;3.80;99.90
2625;DHT22;1322;53.256;10.386;2024-01-15T13:52:53;3.70;99.90
2625;DHT22;1322;53.256;10.386;2024-01-15T13:55:18;3.80;99.90
2625;DHT22;1322;53.256;10.386;2024-01-15T13:57:44;3.80;99.90
2625;DHT22;1322;53.256;10.386;2024-01-15T14:00:10;3.90;99.90
2625;DHT22;1322;53.256;10.386;2024-01-15T14:02:37;3.90;99.90
2625;DHT22;1322;53.256;10.386;2024-01-15T14:05:03;3.80;99.90
2625;DHT22;1322;53.256;10.386;2024-01-15T14:07:29;3.70;99.90
2625;DHT22;1322;53.256;10.386;2024-01-15T14:09:54;3.70;99.90
2625;DHT22;1322;53.256;10.386;2024-01-15T14:12:20;3.80;99.90
2625;DHT22;1322;53.256;10.386;2024-01-15T14:14:45;3.90;99.90
2625;DHT22;1322;53.256;10.386;2024-01-15T14:17:11;3.70;99.90
2625;DHT22;1322;53.256;10.386;2024-01-15T14:19:37;3.60;99.90
2625;DHT22;1322;53.256;10.386;2024-01-15T14:22:03;3.60;99.90
2625;DHT22;1322;53.256;10.386;2024-01-15T14:24:29;3.50;99.90
2625;DHT22;1322;53.256;10.386;2024-01-15T14:26:54;3.50;99.90
2625;DHT22;1322;53.256;10.386;2024-01-15T14:29:20;3.60;99.90
2625;DHT22;1322;53.256;10.386;2024-01-15T14:31:47;3.60;99.90
2625;DHT22;1322;53.256;10.386;2024-01-15T14:34:13;3.70;99.90
2625;DHT22;1322;53.256;10.386;2024-01-15T14:36:39;3.60;99.90
2625;DHT22;1322;53.256;10.386;2024-01-15T14:39:04;3.70;99.90
2625;DHT22;1322;53.256;10.386;2024-01-15T14:41:30;3.70;99.90
2625;DHT22;1322;53.256;10.386;2024-01-15T14:43:56;3.60;99.90
2625;DHT22;1322;53.256;10.386;2024-01-15T14:46:22;3.60;99.90
2625;DHT22;1322;53.256;10.386;2024-01-15T14:48:48;3.50;99.90
2625;DHT22;1322;53.256;10.386;2024-01-15T14:51:14;3.50;99.90
2625;DHT22;1322;53.256;10.386;2024-01-15T14:53:40;3.40;99.90
2625;DHT22;1322;53.256;10.386;2024-01-15T14:56:06;3.40;99.90
2625;DHT22;1322;53.256;10.386;2024-01-15T14:58:33;3.50;99.90
2625;DHT22;1322;53.256;10.386;2024-01-15T15:00:59;3.50;99.90
2625;DHT22;1322;53.256;10.386;2024-01-15T15:03:24;3.60;99.90
2625;DHT22;1322;53.256;10.386;2024-01-15T15:05:53;3.60;99.90
2625;DHT22;1322;53.256;10.386;2024-01-15T15:08:19;3.70;99.90
2625;DHT22;1322;53.256;10.386;2024-01-15T15:10:47;3.70;99.90
2625;DHT22;1322;53.256;10.386;2024-01-15T15:13:13;3.70;99.90
2625;DHT22;1322;53.256;10.386;2024-01-15T15:15:39;3.60;99.90
2625;DHT22;1322;53.256;10.386;2024-01-15T15:18:04;3.40;99.90
2625;DHT22;1322;53.256;10.386;2024-01-15T15:20:30;3.30;99.90
2625;DHT22;1322;53.256;10.386;2024-01-15T15:22:55;3.20;99.90
2625;DHT22;1322;53.256;10.386;2024-01-15T15:25:22;3.10;99.90
2625;DHT22;1322;53.256;10.386;2024-01-15T15:27:48;3.00;99.90
2625;DHT22;1322;53.256;10.386;2024-01-15T15:30:14;3.00;99.90
2625;DHT22;1322;53.256;10.386;2024-01-15T15:32:51;3.00;99.90
2625;DHT22;1322;53.256;10.386;2024-01-15T15:35:20;3.00;99.90
2625;DHT22;1322;53.256;10.386;2024-01-15T15:37:45;3.00;99.90
2625;DHT22;1322;53.256;10.386;2024-01-15T15:40:11;2.90;99.90
2625;DHT22;1322;53.256;10.386;2024-01-15T15:42:41;2.90;99.90
2625;DHT22;1322;53.256;10.386;2024-01-15T15:45:07;2.90;99.90
2625;DHT22;1322;53.256;10.386;2024-01-15T15:47:35;2.80;99.90
2625;DHT22;1322;53.256;10.386;2024-01-15T15:50:01;2.90;99.90
2625;DHT22;1322;53.256;10.386;2024-01-15T15:52:27;2.90;99.90
2625;DHT22;1322;53.256;10.386;2024-01-15T15:54:55;3.00;99.90
2625;DHT22;1322;53.256;10.386;2024-01-15T15:57:21;3.00;99.90
2625;DHT22;1322;53.256;10.386;2024-01-15T15:59:48;2.90;99.90
2625;DHT22;1322;53.256;10.386;2024-01-15T16:02:13;3.00;99.90
2625;DHT22;1322;53.256;10.386;2024-01-15T16:04:39;3.00;99.90
2625;DHT22;1322;53.256;10.386;2024-01-15T16:07:05;3.10;99.90
2625;DHT22;1322;53.256;10.386;2024-01-15T16:09:35;3.10;99.90
2625;DHT22;1322;53.256;10.386;2024-01-15T16:12:04;3.00;99.90
2625;DHT22;1322;53.256;10.386;2024-01-15T16:14:30;3.10;99.90